createdAt,value
2019-02-15T00:01:24.144Z,26.00
2019-02-15T00:06:25.929Z,42.67
2019-02-15T00:11:27.648Z,32.90
2019-02-15T00:16:29.951Z,40.80
2019-02-15T00:21:31.731Z,29.80
2019-02-15T00:26:33.967Z,28.70
2019-02-15T00:31:35.765Z,33.37
2019-02-15T00:36:37.556Z,55.73
2019-02-15T00:41:39.372Z,51.90
2019-02-15T00:46:42.923Z,22.47
2019-02-15T00:51:53.113Z,22.70
2019-02-15T00:57:06.274Z,22.97
2019-02-15T01:02:11.446Z,17.23
2019-02-15T01:07:14.967Z,18.80
2019-02-15T01:12:18.824Z,19.60
2019-02-15T01:17:20.466Z,19.93
2019-02-15T01:22:23.286Z,16.20
2019-02-15T01:27:26.795Z,18.90
2019-02-15T01:32:30.385Z,18.57
2019-02-15T01:37:34.026Z,21.53
2019-02-15T01:42:44.029Z,21.47
2019-02-15T01:47:45.831Z,20.50
2019-02-15T01:52:47.740Z,17.83
2019-02-15T01:57:50.051Z,17.63
2019-02-15T02:02:52.155Z,19.10
2019-02-15T02:07:54.163Z,15.03
2019-02-15T02:12:57.194Z,16.60
2019-02-15T02:17:59.300Z,16.23
2019-02-15T02:23:01.924Z,18.13
2019-02-15T02:28:03.680Z,16.00
2019-02-15T02:33:06.199Z,16.83
2019-02-15T02:38:08.002Z,18.80
2019-02-15T02:43:10.625Z,17.27
2019-02-15T02:48:12.422Z,16.30
2019-02-15T02:53:14.564Z,16.37
2019-02-15T02:58:16.331Z,16.97
2019-02-15T03:03:18.543Z,17.83
2019-02-15T03:08:20.251Z,15.73
2019-02-15T03:13:22.050Z,19.73
2019-02-15T03:18:25.903Z,17.03
2019-02-15T03:23:27.581Z,18.90
2019-02-15T03:28:29.612Z,19.70
2019-02-15T03:33:32.127Z,16.00
2019-02-15T03:38:38.851Z,15.70
2019-02-15T03:43:40.629Z,18.07
2019-02-15T03:48:42.396Z,17.27
2019-02-15T03:53:44.198Z,17.73
2019-02-15T03:58:45.998Z,17.50
2019-02-15T04:03:48.118Z,17.00
2019-02-15T04:08:49.812Z,18.30
2019-02-15T04:13:51.605Z,18.20
2019-02-15T04:18:53.801Z,19.70
2019-02-15T04:23:55.585Z,17.77
2019-02-15T04:28:57.387Z,17.80
2019-02-15T04:33:59.600Z,18.97
2019-02-15T04:39:01.399Z,19.20
2019-02-15T04:44:03.204Z,19.13
2019-02-15T04:49:04.999Z,18.53
2019-02-15T04:54:07.148Z,19.00
2019-02-15T04:59:09.345Z,18.10
2019-02-15T05:04:11.141Z,18.50
2019-02-15T05:09:12.808Z,16.50
2019-02-15T05:14:14.612Z,16.77
2019-02-15T05:19:16.311Z,18.37
2019-02-15T05:24:18.018Z,17.60
2019-02-15T05:29:19.817Z,18.90
2019-02-15T05:34:21.930Z,18.20
2019-02-15T05:39:23.638Z,18.87
2019-02-15T05:44:25.948Z,19.20
2019-02-15T05:49:27.664Z,19.10
2019-02-15T05:54:29.448Z,17.50
2019-02-15T05:59:31.153Z,20.17
2019-02-15T06:04:33.152Z,18.93
2019-02-15T06:09:34.859Z,18.17
2019-02-15T06:14:38.273Z,19.17
2019-02-15T06:19:39.920Z,21.87
2019-02-15T06:24:41.659Z,20.17
2019-02-15T06:29:43.692Z,21.93
2019-02-15T06:39:54.801Z,19.67
2019-02-15T06:44:56.640Z,16.97
2019-02-15T06:49:58.823Z,18.57
2019-02-15T06:55:00.588Z,19.53
2019-02-15T07:00:20.501Z,18.93
2019-02-15T07:05:24.245Z,20.63
2019-02-15T07:10:26.444Z,20.90
2019-02-15T07:15:33.866Z,20.07
2019-02-15T07:20:32.109Z,19.20
2019-02-15T07:25:33.805Z,17.37
2019-02-15T07:30:35.596Z,17.63
2019-02-15T07:35:37.930Z,19.90
2019-02-15T07:40:40.176Z,22.50
2019-02-15T07:45:43.128Z,22.40
2019-02-15T07:50:44.976Z,16.77
2019-02-15T07:55:46.980Z,17.80
2019-02-15T08:00:48.793Z,17.53
2019-02-15T08:05:50.581Z,17.80
2019-02-15T08:10:52.238Z,16.57
2019-02-15T08:15:53.958Z,19.80
2019-02-15T08:20:55.596Z,18.23
2019-02-15T08:25:57.810Z,17.33
2019-02-15T08:30:59.512Z,16.63
2019-02-15T08:36:01.207Z,15.50
2019-02-15T08:41:03.358Z,16.00
2019-02-15T08:46:05.126Z,15.77
2019-02-15T08:51:06.828Z,15.27
2019-02-15T08:56:08.836Z,15.93
2019-02-15T09:01:10.997Z,15.17
2019-02-15T09:06:13.263Z,17.70
2019-02-15T09:11:15.257Z,11.73
2019-02-15T09:16:17.079Z,12.57
2019-02-15T09:21:20.303Z,19.57
2019-02-15T09:26:22.427Z,23.97
2019-02-15T09:31:24.556Z,21.00
2019-02-15T09:36:26.283Z,23.37
2019-02-15T09:41:28.052Z,20.07
2019-02-15T09:46:30.008Z,19.97
2019-02-15T09:51:32.105Z,21.60
2019-02-15T09:56:34.212Z,19.43
2019-02-15T10:01:35.992Z,18.77
2019-02-15T10:06:38.375Z,21.50
2019-02-15T10:11:40.030Z,18.20
2019-02-15T10:16:41.806Z,19.40
2019-02-15T10:21:44.324Z,16.60
2019-02-15T10:26:46.338Z,17.10
2019-02-15T10:31:48.137Z,15.20
2019-02-15T10:36:50.189Z,15.63
2019-02-15T10:41:51.949Z,16.40
2019-02-15T10:46:53.857Z,14.33
2019-02-15T10:51:56.172Z,16.43
2019-02-15T10:56:58.234Z,14.40
2019-02-15T11:02:00.494Z,13.40
2019-02-15T11:07:02.257Z,12.93
2019-02-15T11:12:04.615Z,11.87
2019-02-15T11:17:06.326Z,12.97
2019-02-15T11:22:08.027Z,14.20
2019-02-15T11:27:10.020Z,13.57
2019-02-15T11:32:15.915Z,12.10
2019-02-15T11:37:17.577Z,11.20
2019-02-15T11:42:19.315Z,13.57
2019-02-15T11:47:21.014Z,13.47
2019-02-15T11:52:22.814Z,11.20
2019-02-15T11:57:25.337Z,11.10
2019-02-15T12:02:27.717Z,12.50
2019-02-15T12:07:29.411Z,11.20
2019-02-15T12:12:31.068Z,11.00
2019-02-15T12:17:32.832Z,11.77
2019-02-15T12:22:34.534Z,8.80
2019-02-15T12:27:36.876Z,11.50
2019-02-15T12:32:38.593Z,13.77
2019-02-15T12:37:40.360Z,11.37
2019-02-15T12:42:42.117Z,11.80
2019-02-15T12:47:43.870Z,11.83
2019-02-15T12:52:45.617Z,10.60
2019-02-15T12:57:48.044Z,10.40
2019-02-15T13:02:49.865Z,9.90
2019-02-15T13:07:51.784Z,13.00
2019-02-15T13:12:53.804Z,11.17
2019-02-15T13:17:55.595Z,12.20
2019-02-15T13:22:57.244Z,13.03
2019-02-15T13:27:59.406Z,11.20
2019-02-15T13:33:01.011Z,10.50
2019-02-15T13:38:02.829Z,12.47
2019-02-15T13:43:05.016Z,12.27
2019-02-15T13:48:06.942Z,11.30
2019-02-15T13:53:09.030Z,10.23
2019-02-15T13:58:11.676Z,11.13
2019-02-15T14:03:13.476Z,11.33
2019-02-15T14:08:16.555Z,11.60
2019-02-15T14:13:18.308Z,10.23
2019-02-15T14:18:20.010Z,12.47
2019-02-15T14:23:21.754Z,11.43
2019-02-15T14:28:23.854Z,11.43
2019-02-15T14:33:26.010Z,11.30
2019-02-15T14:38:28.185Z,11.73
2019-02-15T14:43:30.083Z,11.50
2019-02-15T14:48:31.855Z,13.47
2019-02-15T14:53:33.713Z,16.10
2019-02-15T14:58:36.034Z,15.53
2019-02-15T15:03:37.820Z,16.40
2019-02-15T15:08:42.036Z,17.93
2019-02-15T15:13:46.076Z,15.70
2019-02-15T15:18:49.599Z,15.17
2019-02-15T15:23:51.591Z,14.47
2019-02-15T15:28:54.330Z,19.77
2019-02-15T15:33:56.520Z,14.60
2019-02-15T15:38:59.051Z,10.57
2019-02-15T15:44:01.046Z,10.40
2019-02-15T15:49:02.745Z,9.40
2019-02-15T15:54:04.460Z,8.80
2019-02-15T15:59:06.173Z,8.60
2019-02-15T16:04:07.937Z,7.73
2019-02-15T16:09:09.709Z,8.23
2019-02-15T16:14:11.919Z,7.70
2019-02-15T16:19:13.698Z,7.80
2019-02-15T16:24:15.587Z,8.70
2019-02-15T16:29:18.894Z,7.43
2019-02-15T16:34:20.529Z,6.50
2019-02-15T16:39:22.345Z,7.67
2019-02-15T16:44:24.133Z,6.67
2019-02-15T17:11:17.875Z,7.73
2019-02-15T17:16:19.969Z,6.80
2019-02-15T17:21:21.757Z,6.70
2019-02-15T17:37:58.519Z,6.90
2019-02-15T17:43:01.025Z,7.83
2019-02-15T17:49:01.966Z,7.43
2019-02-15T17:54:07.079Z,6.93
2019-02-15T17:59:11.262Z,7.97
2019-02-15T18:04:15.192Z,8.30
2019-02-15T18:09:34.987Z,7.80
2019-02-15T18:14:39.125Z,7.53
2019-02-15T18:19:47.059Z,8.13
2019-02-15T18:24:45.062Z,6.30
2019-02-15T18:29:47.268Z,9.87
2019-02-15T18:34:49.071Z,10.10
2019-02-15T18:39:50.931Z,8.77
2019-02-15T18:44:52.638Z,11.43
2019-02-15T18:49:54.373Z,11.40
2019-02-15T18:54:59.256Z,11.30
2019-02-15T19:00:01.266Z,8.83
2019-02-15T19:05:05.469Z,11.07
2019-02-15T19:10:12.850Z,10.27
2019-02-15T19:15:15.474Z,8.30
2019-02-15T19:20:17.274Z,14.43
2019-02-15T19:25:19.788Z,11.57
2019-02-15T19:30:28.144Z,12.13
2019-02-15T19:35:30.039Z,13.13
2019-02-15T19:40:31.773Z,11.70
2019-02-15T19:45:33.550Z,13.90
2019-02-15T19:50:35.766Z,11.23
2019-02-15T19:55:37.564Z,12.70
2019-02-15T20:00:39.382Z,19.10
2019-02-15T20:05:41.805Z,20.30
2019-02-15T20:10:43.705Z,17.20
2019-02-15T20:15:45.403Z,15.17
2019-02-15T20:20:47.673Z,14.10
2019-02-15T20:25:49.477Z,11.17
2019-02-15T20:30:51.159Z,12.20
2019-02-15T20:35:59.725Z,10.10
2019-02-15T20:41:03.039Z,9.03
2019-02-15T20:46:05.356Z,9.40
2019-02-15T20:51:07.686Z,10.23
2019-02-15T20:56:09.569Z,8.53
2019-02-15T21:01:11.891Z,9.67
2019-02-15T21:06:14.814Z,9.03
2019-02-15T21:11:16.696Z,10.30
2019-02-15T21:16:20.358Z,10.40
2019-02-15T21:21:22.550Z,10.40
2019-02-15T21:26:24.707Z,12.90
2019-02-15T21:31:26.565Z,10.57
2019-02-15T21:36:29.693Z,9.70
2019-02-15T21:41:31.468Z,11.17
2019-02-15T21:46:33.169Z,12.03
2019-02-15T21:51:35.267Z,11.37
2019-02-15T21:56:36.925Z,10.90
2019-02-15T22:01:38.595Z,10.30
2019-02-15T22:06:40.324Z,8.17
2019-02-15T22:11:42.019Z,9.73
2019-02-15T22:16:43.813Z,12.17
2019-02-15T22:21:45.690Z,10.43
2019-02-15T22:26:47.548Z,9.27
2019-02-15T22:31:49.374Z,10.87
2019-02-15T22:36:51.213Z,11.33
2019-02-15T22:41:52.924Z,12.97
2019-02-15T22:46:57.021Z,13.10
2019-02-15T22:52:00.002Z,12.40
2019-02-15T22:57:01.727Z,13.60
2019-02-15T23:02:03.728Z,12.10
2019-02-15T23:07:05.443Z,12.23
2019-02-15T23:12:07.078Z,10.83
2019-02-15T23:17:08.885Z,11.90
2019-02-15T23:22:10.602Z,13.80
2019-02-15T23:27:12.565Z,13.30
2019-02-15T23:32:14.666Z,13.27
2019-02-15T23:37:16.458Z,14.67
2019-02-15T23:42:18.682Z,18.10
2019-02-15T23:47:20.909Z,19.90
2019-02-15T23:52:23.020Z,22.53
2019-02-15T23:57:24.851Z,21.10
